Time;durP1;ratioP1;P1;durP2;ratioP2;P2;SDS_P1;SDS_P2;PMS_P1;PMS_P2;Temp;Humidity;BMP_temperature;BMP_pressure;BME280_temperature;BME280_humidity;BME280_pressure;Samples;Min_cycle;Max_cycle;Signal;HPM_P1;HPM_P2
2023/03/10 00:01:28;;;;;;;23.10;11.10;;;;;;;6.93;100.00;99524.98;106927;1275;26499;-69
2023/03/10 00:03:58;;;;;;;18.40;9.40;;;;;;;6.94;100.00;99517.17;107000;1275;22580;-72
2023/03/10 00:06:28;;;;;;;16.50;6.90;;;;;;;6.93;100.00;99518.65;106994;1275;25234;-70
2023/03/10 00:08:58;;;;;;;13.80;6.50;;;;;;;6.91;100.00;99511.55;107004;1275;24376;-71
2023/03/10 00:11:26;;;;;;;18.10;6.70;;;;;;;6.89;100.00;99510.16;106963;1275;23528;-69
2023/03/10 00:13:56;;;;;;;16.00;6.40;;;;;;;6.87;100.00;99508.02;106988;1275;26516;-69
2023/03/10 00:16:32;;;;;;;11.90;5.90;;;;;;;6.87;100.00;99514.00;106970;1275;22666;-69
2023/03/10 00:19:03;;;;;;;11.70;6.20;;;;;;;6.86;100.00;99509.25;106824;1275;25344;-70
2023/03/10 00:21:32;;;;;;;22.90;10.40;;;;;;;6.85;100.00;99510.04;106962;1275;25361;-70
2023/03/10 00:24:00;;;;;;;20.80;10.30;;;;;;;6.83;100.00;99504.98;106983;1275;25351;-71
2023/03/10 00:26:30;;;;;;;20.40;10.10;;;;;;;6.83;100.00;99495.35;106979;1275;25280;-70
2023/03/10 00:28:58;;;;;;;19.70;8.00;;;;;;;6.82;100.00;99492.23;106978;1275;25362;-69
2023/03/10 00:31:30;;;;;;;15.40;6.60;;;;;;;6.80;100.00;99488.85;107026;1275;26968;-69
2023/03/10 00:33:59;;;;;;;15.00;6.50;;;;;;;6.79;100.00;99493.82;106872;1275;25348;-69
2023/03/10 00:36:30;;;;;;;16.90;6.40;;;;;;;6.79;100.00;99489.72;106970;1275;25815;-69
2023/03/10 00:39:03;;;;;;;16.80;6.90;;;;;;;6.78;100.00;99491.91;106859;1275;22528;-69
2023/03/10 00:41:40;;;;;;;16.90;6.60;;;;;;;6.79;100.00;99504.36;107004;1275;25257;-71
2023/03/10 00:44:09;;;;;;;17.50;8.40;;;;;;;6.79;100.00;99511.22;106847;1275;25232;-70
2023/03/10 00:46:38;;;;;;;21.70;8.60;;;;;;;6.80;100.00;99505.92;106988;1275;22524;-72
2023/03/10 00:49:09;;;;;;;20.20;7.30;;;;;;;6.80;100.00;99506.77;106996;1275;25281;-70
2023/03/10 00:51:37;;;;;;;13.10;6.40;;;;;;;6.81;100.00;99493.95;106783;1275;25290;-69
2023/03/10 00:54:05;;;;;;;13.10;6.50;;;;;;;6.81;100.00;99498.22;106850;1275;25381;-70
2023/03/10 00:56:35;;;;;;;17.60;6.60;;;;;;;6.82;100.00;99495.52;106991;1275;26551;-70
2023/03/10 00:59:06;;;;;;;13.50;6.50;;;;;;;6.81;100.00;99506.13;106812;1275;26516;-69
2023/03/10 01:01:38;;;;;;;17.60;6.90;;;;;;;6.80;100.00;99508.73;106966;1275;22534;-68
2023/03/10 01:04:11;;;;;;;14.50;6.20;;;;;;;6.80;100.00;99517.20;106812;1275;26750;-70
2023/03/10 01:06:41;;;;;;;13.50;6.70;;;;;;;6.79;100.00;99505.95;107018;1275;25410;-71
2023/03/10 01:09:11;;;;;;;13.30;6.60;;;;;;;6.78;100.00;99500.86;106998;1275;25396;-69
2023/03/10 01:11:41;;;;;;;13.80;6.50;;;;;;;6.77;100.00;99492.73;106972;1275;25356;-69
2023/03/10 01:14:12;;;;;;;15.10;7.00;;;;;;;6.76;100.00;99489.23;107012;1275;25366;-71
2023/03/10 01:16:41;;;;;;;11.80;6.30;;;;;;;6.75;100.00;99487.55;106970;1275;22569;-70
2023/03/10 01:19:09;;;;;;;17.90;6.50;;;;;;;6.74;100.00;99484.29;106825;1275;25336;-69
2023/03/10 01:21:38;;;;;;;13.70;6.80;;;;;;;6.73;100.00;99484.27;106842;1275;26878;-70
2023/03/10 01:24:07;;;;;;;17.90;6.80;;;;;;;6.70;100.00;99491.69;106816;1275;24237;-70
2023/03/10 01:26:37;;;;;;;14.80;6.40;;;;;;;6.68;100.00;99495.67;106961;1275;25876;-69
2023/03/10 01:29:06;;;;;;;14.40;6.90;;;;;;;6.66;100.00;99497.13;106843;1275;25303;-70
2023/03/10 01:31:35;;;;;;;13.40;6.80;;;;;;;6.63;100.00;99501.32;107012;1275;25349;-71
2023/03/10 01:34:04;;;;;;;20.20;8.40;;;;;;;6.60;100.00;99502.57;106788;1275;25409;-70
2023/03/10 01:36:33;;;;;;;24.10;9.40;;;;;;;6.57;100.00;99499.98;106933;1275;22540;-69
2023/03/10 01:39:02;;;;;;;19.70;8.70;;;;;;;6.55;100.00;99504.49;107841;1275;23021;-69
2023/03/10 01:41:30;;;;;;;19.60;8.00;;;;;;;6.53;100.00;99505.05;108614;1275;24222;-69
2023/03/10 01:43:59;;;;;;;18.60;8.00;;;;;;;6.52;100.00;99491.98;106992;1275;22578;-73
2023/03/10 01:46:41;;;;;;;18.60;7.80;;;;;;;6.50;100.00;99483.23;106855;1275;23283;-69
2023/03/10 01:49:40;;;;;;;18.80;7.40;;;;;;;6.48;100.00;99484.52;106974;1275;25341;-69
2023/03/10 01:52:09;;;;;;;19.80;8.00;;;;;;;6.45;100.00;99476.36;106976;1275;26508;-70
2023/03/10 01:54:58;;;;;;;18.70;8.20;;;;;;;6.43;100.00;99474.40;106988;1275;22533;-69
2023/03/10 01:57:29;;;;;;;20.10;7.50;;;;;;;6.41;100.00;99480.93;106811;1275;24242;-70
2023/03/10 01:59:58;;;;;;;18.60;8.10;;;;;;;6.38;100.00;99478.67;106968;1275;25355;-71
2023/03/10 02:02:27;;;;;;;15.70;7.10;;;;;;;6.36;100.00;99473.88;106785;1275;25309;-69
2023/03/10 02:04:56;;;;;;;19.00;7.30;;;;;;;6.34;100.00;99472.80;106847;1275;25401;-69
2023/03/10 02:07:30;;;;;;;19.10;7.60;;;;;;;6.33;100.00;99473.33;106992;1275;25419;-68
2023/03/10 02:09:59;;;;;;;18.40;7.20;;;;;;;6.31;100.00;99469.91;106966;1275;25364;-68
2023/03/10 02:12:28;;;;;;;13.70;6.50;;;;;;;6.28;100.00;99459.46;106801;1275;25246;-70
2023/03/10 02:15:00;;;;;;;18.80;8.00;;;;;;;6.26;100.00;99452.54;106962;1275;26455;-70
2023/03/10 02:17:29;;;;;;;16.30;7.00;;;;;;;6.24;100.00;99450.61;106828;1275;25375;-69
2023/03/10 02:20:03;;;;;;;18.10;7.60;;;;;;;6.21;100.00;99454.79;106972;1275;22589;-69
2023/03/10 02:22:33;;;;;;;14.40;7.00;;;;;;;6.20;100.00;99458.69;107006;1275;25374;-68
2023/03/10 02:25:23;;;;;;;17.60;7.80;;;;;;;6.18;100.00;99449.05;107087;1275;25526;-69
2023/03/10 02:27:52;;;;;;;18.80;7.50;;;;;;;6.16;100.00;99451.06;106969;1275;24325;-68
2023/03/10 02:30:42;;;;;;;21.80;8.10;;;;;;;6.15;100.00;99458.70;107042;1275;25426;-68
2023/03/10 02:33:14;;;;;;;15.20;7.60;;;;;;;6.12;100.00;99456.33;106798;1275;25532;-69
2023/03/10 02:35:44;;;;;;;18.10;7.60;;;;;;;6.10;100.00;99464.34;106995;1275;25358;-70
2023/03/10 02:38:16;;;;;;;17.20;7.50;;;;;;;6.10;100.00;99459.38;106985;1275;25508;-69
2023/03/10 02:40:48;;;;;;;17.30;8.10;;;;;;;6.08;100.00;99456.01;106985;1275;24223;-70
2023/03/10 02:43:25;;;;;;;16.50;7.80;;;;;;;6.05;100.00;99455.14;106980;1275;25496;-69
2023/03/10 02:46:01;;;;;;;20.70;9.00;;;;;;;6.02;100.00;99451.23;106965;1275;22628;-69
2023/03/10 02:48:31;;;;;;;17.00;7.90;;;;;;;6.00;100.00;99458.25;106859;1275;25385;-68
2023/03/10 02:51:02;;;;;;;19.10;8.00;;;;;;;5.97;100.00;99461.05;106949;1275;26504;-79
2023/03/10 02:53:31;;;;;;;18.80;8.40;;;;;;;5.93;100.00;99456.36;107050;1275;22474;-80
2023/03/10 02:55:59;;;;;;;17.80;7.50;;;;;;;5.92;100.00;99453.42;107059;1273;22741;-78
2023/03/10 02:58:29;;;;;;;17.80;7.40;;;;;;;5.90;100.00;99449.87;106965;1275;26668;-79
2023/03/10 03:01:04;;;;;;;18.30;7.60;;;;;;;5.88;100.00;99442.70;107051;1275;23798;-79
2023/03/10 03:03:35;;;;;;;19.20;8.50;;;;;;;5.89;100.00;99446.46;107129;1275;26569;-79
2023/03/10 03:06:04;;;;;;;19.40;8.20;;;;;;;5.87;100.00;99444.77;107072;1275;26629;-80
2023/03/10 03:08:34;;;;;;;14.60;6.90;;;;;;;5.87;100.00;99442.33;106987;1275;25438;-78
2023/03/10 03:11:04;;;;;;;19.00;7.90;;;;;;;5.86;100.00;99440.95;106989;1275;24064;-79
2023/03/10 03:13:33;;;;;;;17.00;7.90;;;;;;;5.85;100.00;99438.98;107020;1275;25320;-79
2023/03/10 03:16:05;;;;;;;17.90;7.40;;;;;;;5.82;100.00;99440.83;107037;1275;25593;-79
2023/03/10 03:18:35;;;;;;;18.90;8.30;;;;;;;5.81;100.00;99439.23;106982;1275;22763;-79
2023/03/10 03:21:11;;;;;;;18.30;8.50;;;;;;;5.78;100.00;99439.67;107077;1275;25242;-79
2023/03/10 03:23:40;;;;;;;17.30;7.40;;;;;;;5.76;100.00;99435.90;107013;1275;26708;-79
2023/03/10 03:26:14;;;;;;;18.90;8.40;;;;;;;5.75;100.00;99435.69;106992;1275;24234;-79
2023/03/10 03:28:44;;;;;;;19.10;7.60;;;;;;;5.75;100.00;99429.46;107065;1275;25250;-80
2023/03/10 03:31:19;;;;;;;18.50;7.70;;;;;;;5.73;100.00;99429.40;107044;1275;25365;-79
2023/03/10 03:33:51;;;;;;;18.10;7.10;;;;;;;5.73;100.00;99424.06;107050;1275;25433;-79
2023/03/10 03:36:21;;;;;;;19.70;8.10;;;;;;;5.72;100.00;99422.02;106938;1275;26550;-70
2023/03/10 03:38:50;;;;;;;13.90;6.80;;;;;;;5.71;100.00;99417.11;106837;1275;24224;-70
2023/03/10 03:41:19;;;;;;;23.40;10.80;;;;;;;5.68;100.00;99412.36;106763;1275;25414;-69
2023/03/10 03:43:48;;;;;;;21.30;8.60;;;;;;;5.66;100.00;99406.84;106974;1275;26577;-68
2023/03/10 03:46:17;;;;;;;15.50;8.50;;;;;;;5.65;100.00;99406.63;107013;1275;26624;-69
2023/03/10 03:48:46;;;;;;;20.90;8.80;;;;;;;5.64;100.00;99407.57;106804;1275;25482;-69
2023/03/10 03:51:15;;;;;;;18.30;8.20;;;;;;;5.64;100.00;99409.21;106957;1275;24228;-80
2023/03/10 03:53:43;;;;;;;16.30;7.90;;;;;;;5.63;100.00;99413.75;106952;1275;25607;-79
2023/03/10 03:56:12;;;;;;;19.90;7.80;;;;;;;5.62;100.00;99410.80;107096;1275;22739;-79
2023/03/10 03:58:43;;;;;;;18.60;7.60;;;;;;;5.62;100.00;99404.92;107152;1275;25988;-80
2023/03/10 04:01:12;;;;;;;17.20;7.80;;;;;;;5.62;100.00;99406.60;107056;1275;25253;-79
2023/03/10 04:03:45;;;;;;;18.50;8.20;;;;;;;5.61;100.00;99404.19;107175;1275;25308;-79
2023/03/10 04:06:15;;;;;;;19.70;8.60;;;;;;;5.62;100.00;99400.13;107292;1275;22469;-79
2023/03/10 04:08:44;;;;;;;17.50;8.20;;;;;;;5.61;100.00;99396.82;107879;1275;22532;-69
2023/03/10 04:11:14;;;;;;;17.80;8.00;;;;;;;5.60;100.00;99389.25;108985;1275;25597;-69
2023/03/10 04:13:43;;;;;;;20.50;8.20;;;;;;;5.60;100.00;99390.20;107011;1275;22537;-72
2023/03/10 04:16:12;;;;;;;19.00;7.60;;;;;;;5.62;100.00;99379.42;107034;1275;24156;-69
2023/03/10 04:18:41;;;;;;;18.60;7.40;;;;;;;5.62;100.00;99377.27;106828;1275;22530;-71
2023/03/10 04:21:12;;;;;;;17.10;7.30;;;;;;;5.58;100.00;99374.48;107015;1275;25531;-73
2023/03/10 04:23:42;;;;;;;15.50;7.00;;;;;;;5.54;100.00;99376.63;106967;1275;22536;-71
2023/03/10 04:26:13;;;;;;;19.30;8.00;;;;;;;5.52;100.00;99372.54;106913;1275;22555;-70
2023/03/10 04:28:42;;;;;;;20.40;8.70;;;;;;;5.49;100.00;99369.95;106835;1275;25252;-70
2023/03/10 04:31:13;;;;;;;26.90;9.30;;;;;;;5.48;100.00;99372.73;107017;1275;22520;-69
2023/03/10 04:33:44;;;;;;;21.20;8.10;;;;;;;5.48;100.00;99372.04;106836;1275;25308;-69
2023/03/10 04:36:13;;;;;;;17.80;7.50;;;;;;;5.49;100.00;99371.77;106944;1275;22655;-69
2023/03/10 04:38:42;;;;;;;19.50;8.20;;;;;;;5.51;100.00;99367.12;106955;1275;22519;-69
2023/03/10 04:41:11;;;;;;;18.10;8.30;;;;;;;5.53;100.00;99366.16;106944;1275;25377;-69
2023/03/10 04:43:42;;;;;;;17.30;8.40;;;;;;;5.58;100.00;99362.32;106971;1275;22534;-70
2023/03/10 04:46:15;;;;;;;19.00;8.70;;;;;;;5.62;100.00;99361.16;106822;1275;25426;-69
2023/03/10 04:48:45;;;;;;;15.80;7.60;;;;;;;5.65;100.00;99361.88;106957;1275;22523;-70
2023/03/10 04:51:14;;;;;;;20.00;8.50;;;;;;;5.68;100.00;99360.69;106828;1275;25259;-69
2023/03/10 04:53:49;;;;;;;21.00;8.70;;;;;;;5.70;100.00;99356.34;106814;1275;25540;-69
2023/03/10 04:56:20;;;;;;;23.90;8.20;;;;;;;5.73;100.00;99357.70;106752;1275;26506;-70
2023/03/10 04:58:50;;;;;;;22.10;8.20;;;;;;;5.75;100.00;99360.57;106983;1275;26521;-71
2023/03/10 05:01:18;;;;;;;18.20;7.90;;;;;;;5.77;100.00;99355.72;106965;1275;22541;-71
2023/03/10 05:03:51;;;;;;;15.50;7.50;;;;;;;5.79;100.00;99346.08;106989;1275;25286;-72
2023/03/10 05:06:20;;;;;;;17.90;7.50;;;;;;;5.78;100.00;99348.12;107000;1275;22690;-70
2023/03/10 05:09:09;;;;;;;20.40;8.60;;;;;;;5.80;100.00;99335.02;106964;1275;25381;-71
2023/03/10 05:11:38;;;;;;;19.50;8.30;;;;;;;5.82;100.00;99339.46;106966;1275;25259;-72
2023/03/10 05:14:09;;;;;;;22.60;8.60;;;;;;;5.84;100.00;99336.52;107008;1275;22642;-69
2023/03/10 05:16:37;;;;;;;21.50;8.90;;;;;;;5.86;100.00;99330.98;106782;1275;25341;-70
2023/03/10 05:19:08;;;;;;;20.80;8.40;;;;;;;5.86;100.00;99324.13;107012;1275;25423;-71
2023/03/10 05:21:40;;;;;;;25.40;9.50;;;;;;;5.87;100.00;99319.06;106966;1275;25373;-69
2023/03/10 05:24:09;;;;;;;18.30;7.60;;;;;;;5.91;100.00;99333.51;106850;1275;25341;-70
2023/03/10 05:26:38;;;;;;;21.70;8.10;;;;;;;5.93;100.00;99335.17;106933;1275;25246;-71
2023/03/10 05:29:08;;;;;;;18.90;6.80;;;;;;;5.95;100.00;99341.70;106797;1275;26503;-69
2023/03/10 05:31:44;;;;;;;20.40;6.60;;;;;;;5.98;100.00;99338.75;106920;1275;24273;-70
2023/03/10 05:34:24;;;;;;;15.90;7.00;;;;;;;6.01;100.00;99338.61;106991;1275;25432;-69
2023/03/10 05:36:55;;;;;;;17.40;7.90;;;;;;;6.03;100.00;99341.20;106990;1275;22530;-69
2023/03/10 05:39:24;;;;;;;16.90;7.00;;;;;;;6.05;100.00;99343.33;107000;1275;22536;-70
2023/03/10 05:41:54;;;;;;;16.00;7.10;;;;;;;6.07;100.00;99343.51;106775;1275;22528;-71
2023/03/10 05:44:25;;;;;;;17.70;8.10;;;;;;;6.11;100.00;99342.42;106777;1275;22545;-71
2023/03/10 05:46:54;;;;;;;20.30;9.30;;;;;;;6.16;100.00;99344.77;106826;1275;25518;-74
2023/03/10 05:49:23;;;;;;;25.90;9.30;;;;;;;6.22;100.00;99352.14;107066;1275;25419;-69
2023/03/10 05:51:52;;;;;;;19.90;8.90;;;;;;;6.26;100.00;99354.58;107010;1275;22524;-72
2023/03/10 05:54:21;;;;;;;28.40;11.80;;;;;;;6.29;100.00;99350.80;107010;1275;25324;-70
2023/03/10 05:56:49;;;;;;;22.50;10.80;;;;;;;6.30;100.00;99357.10;106817;1275;25476;-70
2023/03/10 05:59:20;;;;;;;21.70;9.70;;;;;;;6.30;100.00;99350.80;107013;1275;22638;-69
2023/03/10 06:01:49;;;;;;;20.40;9.30;;;;;;;6.29;100.00;99352.41;106899;1275;25517;-69
2023/03/10 06:04:18;;;;;;;21.60;9.20;;;;;;;6.27;100.00;99350.02;106847;1275;22632;-71
2023/03/10 06:06:48;;;;;;;19.40;9.50;;;;;;;6.27;100.00;99349.65;106846;1275;190993;-72
2023/03/10 06:09:17;;;;;;;21.10;10.20;;;;;;;6.31;100.00;99346.41;106972;1275;25489;-69
2023/03/10 06:11:48;;;;;;;19.60;8.60;;;;;;;6.42;100.00;99342.03;106973;1275;25341;-79
2023/03/10 06:14:20;;;;;;;24.30;10.10;;;;;;;6.55;100.00;99345.48;107142;1275;25437;-79
2023/03/10 06:16:51;;;;;;;20.50;8.10;;;;;;;6.74;100.00;99358.53;107118;1275;25403;-80
2023/03/10 06:19:26;;;;;;;13.80;7.30;;;;;;;6.94;100.00;99366.09;107238;1267;23231;-76
2023/03/10 06:21:55;;;;;;;16.00;7.00;;;;;;;7.09;100.00;99370.28;107046;1275;26510;-76
2023/03/10 06:24:24;;;;;;;19.60;7.70;;;;;;;7.14;100.00;99371.43;107119;1275;23264;-77
2023/03/10 06:26:54;;;;;;;18.60;7.30;;;;;;;7.17;100.00;99361.26;107009;1272;25430;-76
2023/03/10 06:29:23;;;;;;;15.90;8.70;;;;;;;7.24;100.00;99363.39;107107;1261;25252;-77
2023/03/10 06:31:51;;;;;;;18.30;7.70;;;;;;;7.30;100.00;99359.16;107130;1275;25950;-75
2023/03/10 06:34:20;;;;;;;16.10;7.50;;;;;;;7.35;100.00;99355.23;107172;1275;24386;-78
2023/03/10 06:36:48;;;;;;;15.20;7.50;;;;;;;7.36;100.00;99350.28;107155;1275;22614;-80
2023/03/10 06:39:17;;;;;;;18.10;7.60;;;;;;;7.37;100.00;99350.92;107332;1269;25965;-78
2023/03/10 06:41:46;;;;;;;18.80;7.70;;;;;;;7.41;100.00;99351.39;107077;1275;25458;-79
2023/03/10 06:44:17;;;;;;;19.40;8.20;;;;;;;7.46;100.00;99349.59;108949;1269;22591;-78
2023/03/10 06:46:46;;;;;;;21.20;8.40;;;;;;;7.52;100.00;99343.73;109537;1271;22517;-77
2023/03/10 06:49:15;;;;;;;14.90;6.70;;;;;;;7.62;100.00;99347.67;108530;1269;25317;-81
2023/03/10 06:51:44;;;;;;;16.00;6.80;;;;;;;7.67;100.00;99350.88;107667;1275;23856;-78
2023/03/10 06:54:12;;;;;;;16.00;6.70;;;;;;;7.71;100.00;99353.67;107571;1269;24242;-81
2023/03/10 06:56:41;;;;;;;14.20;6.70;;;;;;;7.75;100.00;99354.05;107285;1275;25427;-77
2023/03/10 06:59:10;;;;;;;13.70;6.90;;;;;;;7.82;100.00;99353.63;107333;1275;23986;-77
2023/03/10 07:01:39;;;;;;;15.70;7.60;;;;;;;8.00;100.00;99359.56;107004;1275;22561;-77
2023/03/10 07:04:09;;;;;;;16.60;6.80;;;;;;;8.24;100.00;99359.54;107009;1276;25246;-76
2023/03/10 07:06:38;;;;;;;12.50;6.20;;;;;;;8.53;100.00;99361.80;106849;1269;25369;-77
2023/03/10 07:09:20;;;;;;;17.50;6.00;;;;;;;8.81;100.00;99362.60;107097;1277;22771;-78
2023/03/10 07:11:54;;;;;;;13.80;6.10;;;;;;;9.04;100.00;99359.32;107358;1277;24177;-78
2023/03/10 07:14:24;;;;;;;15.30;7.40;;;;;;;9.29;100.00;99363.86;108282;1269;22569;-79
2023/03/10 07:16:52;;;;;;;14.50;6.20;;;;;;;9.60;100.00;99365.04;107751;1276;25420;-78
2023/03/10 07:19:22;;;;;;;14.10;6.80;;;;;;;9.91;100.00;99361.68;107739;1276;22675;-78
2023/03/10 07:21:52;;;;;;;21.40;9.10;;;;;;;10.21;100.00;99367.89;107924;1273;23309;-80
2023/03/10 07:24:21;;;;;;;18.40;7.30;;;;;;;10.50;100.00;99369.98;107981;1276;23005;-76
2023/03/10 07:26:50;;;;;;;14.30;6.30;;;;;;;10.75;100.00;99376.10;107990;1276;23392;-80
2023/03/10 07:29:19;;;;;;;13.40;6.60;;;;;;;10.85;100.00;99383.08;107928;1276;22539;-82
2023/03/10 07:31:47;;;;;;;17.60;7.30;;;;;;;10.99;100.00;99397.02;107062;1276;24241;-75
2023/03/10 07:34:17;;;;;;;19.00;6.60;;;;;;;11.20;100.00;99413.67;107709;1276;24213;-77
2023/03/10 07:36:46;;;;;;;14.20;6.90;;;;;;;11.43;100.00;99433.39;107532;1269;22566;-76
2023/03/10 07:39:15;;;;;;;12.90;6.50;;;;;;;11.74;100.00;99451.23;107720;1269;23117;-77
2023/03/10 07:41:44;;;;;;;15.90;7.20;;;;;;;11.96;100.00;99477.94;107810;1276;22558;-78
2023/03/10 07:44:14;;;;;;;14.70;6.80;;;;;;;12.10;100.00;99503.20;107508;1276;25430;-74
2023/03/10 07:46:43;;;;;;;16.30;8.00;;;;;;;12.25;100.00;99528.12;107206;1276;24014;-80
2023/03/10 07:49:15;;;;;;;17.50;7.20;;;;;;;12.37;100.00;99561.72;107569;1276;23774;-81
2023/03/10 07:51:44;;;;;;;18.90;7.70;;;;;;;12.42;100.00;99583.27;107619;1276;26651;-77
2023/03/10 07:54:13;;;;;;;18.10;8.40;;;;;;;12.52;100.00;99611.09;107301;1275;22527;-76
2023/03/10 07:56:41;;;;;;;21.40;10.60;;;;;;;12.65;100.00;99641.77;107216;1276;25430;-75
2023/03/10 07:59:11;;;;;;;26.60;12.30;;;;;;;12.86;100.00;99662.27;107499;1276;25430;-76
2023/03/10 08:01:41;;;;;;;33.00;15.50;;;;;;;13.11;100.00;99682.70;107976;1276;22473;-77
2023/03/10 08:04:11;;;;;;;21.20;11.40;;;;;;;13.11;100.00;99701.98;107291;1275;24212;-76
2023/03/10 08:06:40;;;;;;;17.60;6.90;;;;;;;13.00;100.00;99718.38;107828;1269;25419;-76
2023/03/10 08:09:09;;;;;;;15.90;7.80;;;;;;;13.03;100.00;99727.42;107959;1262;23897;-79
2023/03/10 08:11:39;;;;;;;13.80;5.70;;;;;;;13.19;100.00;99736.17;107619;1275;25428;-76
2023/03/10 08:14:08;;;;;;;11.00;5.20;;;;;;;13.34;100.00;99742.92;107456;1271;22536;-80
2023/03/10 08:16:41;;;;;;;25.00;12.40;;;;;;;13.45;100.00;99748.37;107451;1275;22647;-75
2023/03/10 08:19:10;;;;;;;11.40;5.70;;;;;;;13.66;100.00;99749.95;107076;1272;23897;-76
2023/03/10 08:21:38;;;;;;;15.40;7.80;;;;;;;13.78;100.00;99750.20;107547;1275;23249;-73
2023/03/10 08:24:10;;;;;;;17.60;8.00;;;;;;;13.68;100.00;99746.88;107101;1275;26763;-71
2023/03/10 08:26:38;;;;;;;17.90;8.10;;;;;;;13.79;100.00;99745.18;107045;1272;22527;-72
2023/03/10 08:29:07;;;;;;;340.50;104.30;;;;;;;14.03;100.00;99748.58;107139;1268;22555;-80
2023/03/10 08:31:37;;;;;;;21.40;11.30;;;;;;;14.16;100.00;99747.27;107224;1269;25301;-75
2023/03/10 08:34:07;;;;;;;19.90;11.90;;;;;;;14.03;100.00;99741.78;107277;1271;25949;-78
2023/03/10 08:36:37;;;;;;;13.50;7.30;;;;;;;13.78;100.00;99736.02;107906;1274;25437;-81
2023/03/10 08:39:06;;;;;;;14.10;7.20;;;;;;;13.56;100.00;99731.48;107351;1271;22662;-76
2023/03/10 08:41:44;;;;;;;13.80;7.20;;;;;;;13.52;100.00;99737.09;107062;1275;22520;-72
2023/03/10 08:44:16;;;;;;;31.00;18.10;;;;;;;13.63;100.00;99732.75;107252;1275;22643;-79
2023/03/10 08:46:46;;;;;;;13.70;8.70;;;;;;;13.80;100.00;99729.73;107733;1271;22527;-76
2023/03/10 08:49:16;;;;;;;13.70;8.30;;;;;;;14.04;100.00;99725.80;107672;1275;22537;-78
2023/03/10 08:51:45;;;;;;;15.70;10.10;;;;;;;14.14;100.00;99717.05;107437;1275;22748;-78
2023/03/10 08:54:16;;;;;;;15.70;8.80;;;;;;;14.33;100.00;99706.81;107323;1275;24143;-76
2023/03/10 08:56:45;;;;;;;14.40;8.10;;;;;;;14.46;100.00;99702.63;107277;1268;25379;-80
2023/03/10 08:59:14;;;;;;;18.10;7.70;;;;;;;14.40;100.00;99688.36;107976;1268;24174;-79
2023/03/10 09:01:42;;;;;;;20.40;7.80;;;;;;;14.42;100.00;99684.44;107508;1273;24324;-78
2023/03/10 09:04:12;;;;;;;17.80;8.40;;;;;;;14.52;100.00;99680.30;107758;1268;25572;-77
2023/03/10 09:06:40;;;;;;;22.40;7.90;;;;;;;14.56;100.00;99674.58;108016;1270;22707;-79
2023/03/10 09:09:10;;;;;;;15.50;7.80;;;;;;;14.61;100.00;99665.11;107674;1272;22536;-78
2023/03/10 09:11:43;;;;;;;19.20;8.70;;;;;;;14.63;100.00;99658.66;107501;1268;25419;-72
2023/03/10 09:14:15;;;;;;;19.30;8.60;;;;;;;14.70;100.00;99658.13;107186;1275;25470;-74
2023/03/10 09:16:45;;;;;;;16.70;8.60;;;;;;;14.67;100.00;99653.39;106961;1271;26564;-73
2023/03/10 09:19:14;;;;;;;16.60;8.70;;;;;;;14.52;100.00;99647.44;107142;1268;22611;-72
2023/03/10 09:21:44;;;;;;;29.00;10.10;;;;;;;14.41;100.00;99648.66;108310;1275;1002497;-72
2023/03/10 09:24:13;;;;;;;16.90;7.90;;;;;;;14.63;100.00;99649.82;106995;1268;26586;-78
2023/03/10 09:26:42;;;;;;;21.90;9.00;;;;;;;15.06;100.00;99644.20;107695;1268;22919;-77
2023/03/10 09:29:16;;;;;;;18.50;7.90;;;;;;;15.23;100.00;99632.46;107486;1271;22525;-76
2023/03/10 09:31:47;;;;;;;85.60;34.50;;;;;;;15.00;100.00;99622.63;107687;1268;25462;-81
2023/03/10 09:34:17;;;;;;;18.40;8.70;;;;;;;14.77;100.00;99622.50;109488;1275;22567;-78
2023/03/10 09:36:56;;;;;;;15.90;7.90;;;;;;;14.56;100.00;99628.95;109893;1270;22848;-77
2023/03/10 09:39:25;;;;;;;15.50;8.10;;;;;;;14.33;100.00;99629.31;107903;1270;25439;-76
2023/03/10 09:42:18;;;;;;;17.80;9.20;;;;;;;14.10;100.00;99625.70;108447;1275;22980;-79
2023/03/10 09:45:25;;;;;;;26.10;9.40;;;;;;;13.89;100.00;99623.19;108633;1268;23186;-79
2023/03/10 09:48:13;;;;;;;21.40;9.70;;;;;;;13.87;100.00;99620.17;107787;1269;22520;-77
2023/03/10 09:50:45;;;;;;;14.90;8.20;;;;;;;14.07;100.00;99621.16;107878;1275;23257;-77
2023/03/10 09:53:42;;;;;;;16.30;8.40;;;;;;;14.16;100.00;99614.50;107801;1269;22649;-76
2023/03/10 09:56:15;;;;;;;18.80;8.10;;;;;;;14.33;100.00;99613.26;107301;1267;22579;-71
2023/03/10 09:58:46;;;;;;;17.60;7.60;;;;;;;14.57;100.00;99606.66;107109;1268;24239;-68
2023/03/10 10:01:18;;;;;;;29.50;13.80;;;;;;;14.64;100.00;99602.48;107062;1269;25976;-74
2023/03/10 10:04:12;;;;;;;32.20;16.60;;;;;;;14.69;100.00;99601.73;107591;1268;22767;-75
2023/03/10 10:06:45;;;;;;;18.60;8.10;;;;;;;14.70;100.00;99587.89;107600;1268;26652;-73
2023/03/10 10:09:24;;;;;;;13.70;7.30;;;;;;;14.58;100.00;99587.52;107486;1268;22496;-72
2023/03/10 10:11:54;;;;;;;14.40;7.80;;;;;;;14.35;100.00;99581.45;107284;1267;23508;-74
2023/03/10 10:14:29;;;;;;;17.30;8.40;;;;;;;14.30;100.00;99576.73;107616;1267;24911;-74
2023/03/10 10:17:06;;;;;;;18.00;8.50;;;;;;;14.29;100.00;99571.79;107005;1273;25301;-73
2023/03/10 10:19:38;;;;;;;19.90;8.80;;;;;;;14.36;100.00;99565.32;107242;1270;24189;-73
2023/03/10 10:22:31;;;;;;;12.30;7.20;;;;;;;14.65;100.00;99562.96;108833;1268;22549;-76
2023/03/10 10:25:06;;;;;;;12.60;6.90;;;;;;;14.84;100.00;99547.17;107461;1272;24231;-74
2023/03/10 10:27:36;;;;;;;12.20;6.90;;;;;;;14.79;100.00;99542.58;107032;1269;23366;-77
2023/03/10 10:30:32;;;;;;;18.10;9.20;;;;;;;14.66;100.00;99538.16;108785;1275;26538;-82
2023/03/10 10:33:10;;;;;;;14.50;7.80;;;;;;;14.44;100.00;99529.20;108576;1268;22518;-79
2023/03/10 10:36:04;;;;;;;13.60;7.00;;;;;;;14.22;100.00;99536.46;107924;1272;22525;-71
2023/03/10 10:38:34;;;;;;;13.30;6.70;;;;;;;13.91;100.00;99540.46;107458;1269;23832;-80
2023/03/10 10:41:16;;;;;;;11.40;6.40;;;;;;;13.65;100.00;99544.05;109100;1268;23874;-82
2023/03/10 10:43:46;;;;;;;13.80;6.80;;;;;;;13.33;100.00;99549.70;109489;1273;23055;-78
2023/03/10 10:46:26;;;;;;;15.50;6.50;;;;;;;13.13;100.00;99554.80;109378;1271;22510;-85
2023/03/10 10:49:23;;;;;;;15.40;6.70;;;;;;;13.03;100.00;99553.48;109654;1273;25411;-84
2023/03/10 10:52:01;;;;;;;14.60;6.80;;;;;;;13.03;100.00;99552.35;109592;1268;22535;-85
2023/03/10 10:54:34;;;;;;;13.80;6.70;;;;;;;13.16;100.00;99553.60;108449;1268;25940;-82
2023/03/10 10:57:16;;;;;;;15.60;7.20;;;;;;;13.46;100.00;99551.11;107617;1268;22661;-77
2023/03/10 10:59:48;;;;;;;14.00;7.30;;;;;;;13.85;100.00;99539.98;107432;1273;24253;-71
2023/03/10 11:02:27;;;;;;;18.70;7.70;;;;;;;14.15;100.00;99532.97;107264;1268;25577;-80
2023/03/10 11:05:07;;;;;;;19.20;7.60;;;;;;;14.22;100.00;99521.33;107770;1271;24255;-82
2023/03/10 11:07:35;;;;;;;13.90;6.80;;;;;;;14.13;100.00;99509.27;108992;1269;22533;-79
2023/03/10 11:10:14;;;;;;;15.10;7.00;;;;;;;13.89;100.00;99498.39;107717;1268;25895;-75
2023/03/10 11:12:46;;;;;;;11.60;6.30;;;;;;;13.82;100.00;99488.55;107602;1268;25423;-72
2023/03/10 11:15:37;;;;;;;16.60;6.50;;;;;;;13.89;100.00;99479.45;106972;1268;23086;-69
2023/03/10 11:18:13;;;;;;;19.60;6.80;;;;;;;14.01;100.00;99466.25;106768;1271;23186;-72
2023/03/10 11:21:12;;;;;;;13.90;6.20;;;;;;;14.21;100.00;99461.20;107505;1269;22542;-83
2023/03/10 11:23:49;;;;;;;14.00;5.90;;;;;;;14.50;100.00;99443.91;109091;1275;22825;-82
2023/03/10 11:26:18;;;;;;;12.90;5.90;;;;;;;14.67;100.00;99430.81;108697;1273;22530;-83
2023/03/10 11:28:57;;;;;;;11.40;5.90;;;;;;;14.71;100.00;99423.59;108042;1269;22601;-82
2023/03/10 11:31:48;;;;;;;17.80;6.10;;;;;;;14.67;100.00;99412.39;106945;1274;24280;-71
2023/03/10 11:34:29;;;;;;;22.20;8.40;;;;;;;14.39;100.00;99404.05;107109;1275;25343;-69
2023/03/10 11:37:03;;;;;;;12.40;6.30;;;;;;;14.01;100.00;99411.73;108123;1269;22519;-79